sensor_id;sensor_type;location;lat;lon;timestamp;temperature;humidity
18577;DHT22;9418;52.694;13.294;2023-12-14T00:01:47;3.50;22.80
18577;DHT22;9418;52.694;13.294;2023-12-14T00:04:14;3.60;21.00
18577;DHT22;9418;52.694;13.294;2023-12-14T00:06:42;3.60;21.60
18577;DHT22;9418;52.694;13.294;2023-12-14T00:09:08;3.60;21.10
18577;DHT22;9418;52.694;13.294;2023-12-14T00:11:37;3.60;21.20
18577;DHT22;9418;52.694;13.294;2023-12-14T00:14:04;3.60;20.90
18577;DHT22;9418;52.694;13.294;2023-12-14T00:16:30;3.60;21.10
18577;DHT22;9418;52.694;13.294;2023-12-14T00:18:57;3.60;21.60
18577;DHT22;9418;52.694;13.294;2023-12-14T00:21:24;3.60;21.20
18577;DHT22;9418;52.694;13.294;2023-12-14T00:23:52;3.60;24.00
18577;DHT22;9418;52.694;13.294;2023-12-14T00:26:18;3.50;25.60
18577;DHT22;9418;52.694;13.294;2023-12-14T00:28:45;3.50;27.40
18577;DHT22;9418;52.694;13.294;2023-12-14T00:31:11;3.40;30.30
18577;DHT22;9418;52.694;13.294;2023-12-14T00:33:37;3.40;28.90
18577;DHT22;9418;52.694;13.294;2023-12-14T00:36:04;3.40;27.50
18577;DHT22;9418;52.694;13.294;2023-12-14T00:38:31;3.40;26.90
18577;DHT22;9418;52.694;13.294;2023-12-14T00:40:59;3.40;29.30
18577;DHT22;9418;52.694;13.294;2023-12-14T00:43:25;3.40;27.70
18577;DHT22;9418;52.694;13.294;2023-12-14T00:45:52;3.40;28.40
18577;DHT22;9418;52.694;13.294;2023-12-14T00:48:18;3.40;29.20
18577;DHT22;9418;52.694;13.294;2023-12-14T00:50:45;3.40;28.70
18577;DHT22;9418;52.694;13.294;2023-12-14T00:53:12;3.40;28.10
18577;DHT22;9418;52.694;13.294;2023-12-14T00:55:38;3.50;26.70
18577;DHT22;9418;52.694;13.294;2023-12-14T00:58:06;3.50;26.10
18577;DHT22;9418;52.694;13.294;2023-12-14T01:00:32;3.50;25.60
18577;DHT22;9418;52.694;13.294;2023-12-14T01:02:59;3.50;26.60
18577;DHT22;9418;52.694;13.294;2023-12-14T01:05:26;3.50;27.10
18577;DHT22;9418;52.694;13.294;2023-12-14T01:07:52;3.50;27.40
18577;DHT22;9418;52.694;13.294;2023-12-14T01:10:19;3.50;27.00
18577;DHT22;9418;52.694;13.294;2023-12-14T01:12:45;3.50;26.90
18577;DHT22;9418;52.694;13.294;2023-12-14T01:15:13;3.50;28.70
18577;DHT22;9418;52.694;13.294;2023-12-14T01:17:40;3.40;25.60
18577;DHT22;9418;52.694;13.294;2023-12-14T01:20:07;3.50;27.10
18577;DHT22;9418;52.694;13.294;2023-12-14T01:22:34;3.50;27.90
18577;DHT22;9418;52.694;13.294;2023-12-14T01:25:01;3.40;28.60
18577;DHT22;9418;52.694;13.294;2023-12-14T01:27:27;3.40;28.60
18577;DHT22;9418;52.694;13.294;2023-12-14T01:29:54;3.40;29.50
18577;DHT22;9418;52.694;13.294;2023-12-14T01:32:22;3.40;29.10
18577;DHT22;9418;52.694;13.294;2023-12-14T01:34:48;3.40;28.50
18577;DHT22;9418;52.694;13.294;2023-12-14T01:37:15;3.40;28.90
18577;DHT22;9418;52.694;13.294;2023-12-14T01:39:42;3.40;29.20
18577;DHT22;9418;52.694;13.294;2023-12-14T01:42:08;3.30;31.00
18577;DHT22;9418;52.694;13.294;2023-12-14T01:44:35;3.30;28.70
18577;DHT22;9418;52.694;13.294;2023-12-14T01:47:02;3.30;28.50
18577;DHT22;9418;52.694;13.294;2023-12-14T01:49:30;3.40;28.40
18577;DHT22;9418;52.694;13.294;2023-12-14T01:51:56;3.30;27.90
18577;DHT22;9418;52.694;13.294;2023-12-14T01:54:23;3.30;28.70
18577;DHT22;9418;52.694;13.294;2023-12-14T01:56:49;3.30;28.70
18577;DHT22;9418;52.694;13.294;2023-12-14T01:59:16;3.30;28.40
18577;DHT22;9418;52.694;13.294;2023-12-14T02:01:44;3.30;28.50
18577;DHT22;9418;52.694;13.294;2023-12-14T02:04:11;3.20;28.20
18577;DHT22;9418;52.694;13.294;2023-12-14T02:06:40;3.30;28.10
18577;DHT22;9418;52.694;13.294;2023-12-14T02:09:07;3.30;27.60
18577;DHT22;9418;52.694;13.294;2023-12-14T02:11:34;3.30;27.30
18577;DHT22;9418;52.694;13.294;2023-12-14T02:14:03;3.30;27.80
18577;DHT22;9418;52.694;13.294;2023-12-14T02:16:30;3.30;26.50
18577;DHT22;9418;52.694;13.294;2023-12-14T02:18:57;3.30;26.10
18577;DHT22;9418;52.694;13.294;2023-12-14T02:21:24;3.30;27.40
18577;DHT22;9418;52.694;13.294;2023-12-14T02:23:52;3.30;27.00
18577;DHT22;9418;52.694;13.294;2023-12-14T02:26:18;3.30;26.90
18577;DHT22;9418;52.694;13.294;2023-12-14T02:28:44;3.20;28.10
18577;DHT22;9418;52.694;13.294;2023-12-14T02:31:11;3.20;28.30
18577;DHT22;9418;52.694;13.294;2023-12-14T02:33:37;3.20;29.80
18577;DHT22;9418;52.694;13.294;2023-12-14T02:36:05;3.20;27.60
18577;DHT22;9418;52.694;13.294;2023-12-14T02:38:31;3.20;29.50
18577;DHT22;9418;52.694;13.294;2023-12-14T02:40:59;3.20;29.80
18577;DHT22;9418;52.694;13.294;2023-12-14T02:43:26;3.20;28.20
18577;DHT22;9418;52.694;13.294;2023-12-14T02:45:53;3.20;28.90
18577;DHT22;9418;52.694;13.294;2023-12-14T02:48:20;3.20;28.90
18577;DHT22;9418;52.694;13.294;2023-12-14T02:50:47;3.20;29.10
18577;DHT22;9418;52.694;13.294;2023-12-14T02:53:13;3.20;31.80
18577;DHT22;9418;52.694;13.294;2023-12-14T02:55:40;3.20;30.90
18577;DHT22;9418;52.694;13.294;2023-12-14T02:58:08;3.20;31.50
18577;DHT22;9418;52.694;13.294;2023-12-14T03:00:34;3.10;32.10
18577;DHT22;9418;52.694;13.294;2023-12-14T03:03:01;3.20;32.50
18577;DHT22;9418;52.694;13.294;2023-12-14T03:05:28;3.20;32.10
18577;DHT22;9418;52.694;13.294;2023-12-14T03:07:54;3.20;32.00
18577;DHT22;9418;52.694;13.294;2023-12-14T03:10:21;3.10;34.90
18577;DHT22;9418;52.694;13.294;2023-12-14T03:12:47;3.10;33.70
18577;DHT22;9418;52.694;13.294;2023-12-14T03:15:18;3.10;32.10
18577;DHT22;9418;52.694;13.294;2023-12-14T03:17:44;3.10;31.20
18577;DHT22;9418;52.694;13.294;2023-12-14T03:20:11;3.10;31.30
18577;DHT22;9418;52.694;13.294;2023-12-14T03:22:39;3.20;30.60
18577;DHT22;9418;52.694;13.294;2023-12-14T03:25:07;3.20;30.60
18577;DHT22;9418;52.694;13.294;2023-12-14T03:27:35;3.20;30.10
18577;DHT22;9418;52.694;13.294;2023-12-14T03:30:01;3.20;30.70
18577;DHT22;9418;52.694;13.294;2023-12-14T03:32:30;3.20;29.70
18577;DHT22;9418;52.694;13.294;2023-12-14T03:34:56;3.20;30.00
18577;DHT22;9418;52.694;13.294;2023-12-14T03:37:23;3.20;30.30
18577;DHT22;9418;52.694;13.294;2023-12-14T03:39:49;3.20;30.30
18577;DHT22;9418;52.694;13.294;2023-12-14T03:42:16;3.20;28.90
18577;DHT22;9418;52.694;13.294;2023-12-14T03:44:43;3.20;30.90
18577;DHT22;9418;52.694;13.294;2023-12-14T03:47:10;3.20;29.40
18577;DHT22;9418;52.694;13.294;2023-12-14T03:49:38;3.20;28.60
18577;DHT22;9418;52.694;13.294;2023-12-14T03:52:05;3.20;29.50
18577;DHT22;9418;52.694;13.294;2023-12-14T03:54:31;3.20;28.70
18577;DHT22;9418;52.694;13.294;2023-12-14T03:56:58;3.30;29.30
18577;DHT22;9418;52.694;13.294;2023-12-14T03:59:24;3.20;30.40
18577;DHT22;9418;52.694;13.294;2023-12-14T04:01:51;3.20;29.60
18577;DHT22;9418;52.694;13.294;2023-12-14T04:04:18;3.20;29.70
18577;DHT22;9418;52.694;13.294;2023-12-14T04:06:45;3.30;29.50
18577;DHT22;9418;52.694;13.294;2023-12-14T04:09:12;3.20;29.30
18577;DHT22;9418;52.694;13.294;2023-12-14T04:11:39;3.20;30.20
18577;DHT22;9418;52.694;13.294;2023-12-14T04:14:05;3.20;30.30
18577;DHT22;9418;52.694;13.294;2023-12-14T04:16:32;3.20;30.00
18577;DHT22;9418;52.694;13.294;2023-12-14T04:18:58;3.20;31.60
18577;DHT22;9418;52.694;13.294;2023-12-14T04:21:25;3.20;30.20
18577;DHT22;9418;52.694;13.294;2023-12-14T04:23:53;3.20;29.90
18577;DHT22;9418;52.694;13.294;2023-12-14T04:26:19;3.20;29.70
18577;DHT22;9418;52.694;13.294;2023-12-14T04:28:46;3.20;29.60
18577;DHT22;9418;52.694;13.294;2023-12-14T04:31:12;3.20;29.10
18577;DHT22;9418;52.694;13.294;2023-12-14T04:33:39;3.20;29.60
18577;DHT22;9418;52.694;13.294;2023-12-14T04:36:06;3.20;29.70
18577;DHT22;9418;52.694;13.294;2023-12-14T04:38:33;3.20;28.90
18577;DHT22;9418;52.694;13.294;2023-12-14T04:41:01;3.20;28.40
18577;DHT22;9418;52.694;13.294;2023-12-14T04:43:27;3.20;29.10
18577;DHT22;9418;52.694;13.294;2023-12-14T04:45:55;3.20;27.80
18577;DHT22;9418;52.694;13.294;2023-12-14T04:48:22;3.20;28.40
18577;DHT22;9418;52.694;13.294;2023-12-14T04:50:49;3.20;28.10
18577;DHT22;9418;52.694;13.294;2023-12-14T04:53:15;3.20;29.60
18577;DHT22;9418;52.694;13.294;2023-12-14T04:55:42;3.20;28.20
18577;DHT22;9418;52.694;13.294;2023-12-14T04:58:10;3.10;28.60
18577;DHT22;9418;52.694;13.294;2023-12-14T05:00:36;3.10;29.30
18577;DHT22;9418;52.694;13.294;2023-12-14T05:03:03;3.10;27.60
18577;DHT22;9418;52.694;13.294;2023-12-14T05:05:29;3.10;26.90
18577;DHT22;9418;52.694;13.294;2023-12-14T05:07:56;3.10;28.20
18577;DHT22;9418;52.694;13.294;2023-12-14T05:10:22;3.10;28.40
18577;DHT22;9418;52.694;13.294;2023-12-14T05:12:49;3.00;28.20
18577;DHT22;9418;52.694;13.294;2023-12-14T05:15:17;3.10;26.80
18577;DHT22;9418;52.694;13.294;2023-12-14T05:17:45;3.10;27.10
18577;DHT22;9418;52.694;13.294;2023-12-14T05:20:11;3.00;26.90
18577;DHT22;9418;52.694;13.294;2023-12-14T05:22:38;3.00;29.40
18577;DHT22;9418;52.694;13.294;2023-12-14T05:25:05;3.00;26.50
18577;DHT22;9418;52.694;13.294;2023-12-14T05:27:32;3.10;26.00
18577;DHT22;9418;52.694;13.294;2023-12-14T05:29:58;3.00;26.80
18577;DHT22;9418;52.694;13.294;2023-12-14T05:32:26;3.00;27.10
18577;DHT22;9418;52.694;13.294;2023-12-14T05:34:53;3.00;26.30
18577;DHT22;9418;52.694;13.294;2023-12-14T05:37:19;3.00;26.70
18577;DHT22;9418;52.694;13.294;2023-12-14T05:39:46;3.00;26.20
18577;DHT22;9418;52.694;13.294;2023-12-14T05:42:16;3.10;26.10
18577;DHT22;9418;52.694;13.294;2023-12-14T05:44:42;3.10;25.40
18577;DHT22;9418;52.694;13.294;2023-12-14T05:47:10;3.00;27.50
18577;DHT22;9418;52.694;13.294;2023-12-14T05:49:41;3.00;26.20
18577;DHT22;9418;52.694;13.294;2023-12-14T05:52:07;3.00;25.80
18577;DHT22;9418;52.694;13.294;2023-12-14T05:54:35;3.10;25.60
18577;DHT22;9418;52.694;13.294;2023-12-14T05:57:02;3.10;27.20
18577;DHT22;9418;52.694;13.294;2023-12-14T05:59:29;3.00;28.30
18577;DHT22;9418;52.694;13.294;2023-12-14T06:01:57;3.10;26.60
18577;DHT22;9418;52.694;13.294;2023-12-14T06:04:23;3.10;25.80
18577;DHT22;9418;52.694;13.294;2023-12-14T06:06:51;3.10;25.40
18577;DHT22;9418;52.694;13.294;2023-12-14T06:09:18;3.10;25.30
18577;DHT22;9418;52.694;13.294;2023-12-14T06:11:50;3.10;25.80
18577;DHT22;9418;52.694;13.294;2023-12-14T06:14:16;3.10;27.00
18577;DHT22;9418;52.694;13.294;2023-12-14T06:16:43;3.10;26.80
18577;DHT22;9418;52.694;13.294;2023-12-14T06:19:10;3.10;26.00
18577;DHT22;9418;52.694;13.294;2023-12-14T06:21:36;3.20;25.80
18577;DHT22;9418;52.694;13.294;2023-12-14T06:24:05;3.20;27.30
18577;DHT22;9418;52.694;13.294;2023-12-14T06:26:31;3.30;28.10
18577;DHT22;9418;52.694;13.294;2023-12-14T06:28:58;3.30;28.90
18577;DHT22;9418;52.694;13.294;2023-12-14T06:31:24;3.40;29.20
18577;DHT22;9418;52.694;13.294;2023-12-14T06:33:51;3.30;30.90
18577;DHT22;9418;52.694;13.294;2023-12-14T06:36:18;3.30;30.40
18577;DHT22;9418;52.694;13.294;2023-12-14T06:38:45;3.30;31.80
18577;DHT22;9418;52.694;13.294;2023-12-14T06:41:22;3.20;32.20
18577;DHT22;9418;52.694;13.294;2023-12-14T06:43:49;3.20;32.20
18577;DHT22;9418;52.694;13.294;2023-12-14T06:46:15;3.20;32.40
18577;DHT22;9418;52.694;13.294;2023-12-14T06:48:42;3.20;32.10
18577;DHT22;9418;52.694;13.294;2023-12-14T06:51:09;3.20;30.90
18577;DHT22;9418;52.694;13.294;2023-12-14T06:53:35;3.20;30.90
18577;DHT22;9418;52.694;13.294;2023-12-14T06:56:03;3.20;31.00
18577;DHT22;9418;52.694;13.294;2023-12-14T06:58:31;3.30;30.10
18577;DHT22;9418;52.694;13.294;2023-12-14T07:00:58;3.30;30.80
18577;DHT22;9418;52.694;13.294;2023-12-14T07:03:24;3.20;30.70
18577;DHT22;9418;52.694;13.294;2023-12-14T07:05:51;3.30;31.60
18577;DHT22;9418;52.694;13.294;2023-12-14T07:08:17;3.30;31.60
18577;DHT22;9418;52.694;13.294;2023-12-14T07:10:44;3.30;32.60
18577;DHT22;9418;52.694;13.294;2023-12-14T07:13:10;3.30;32.80
18577;DHT22;9418;52.694;13.294;2023-12-14T07:15:38;3.30;33.70
18577;DHT22;9418;52.694;13.294;2023-12-14T07:18:05;3.30;32.90
18577;DHT22;9418;52.694;13.294;2023-12-14T07:20:31;3.30;33.30
18577;DHT22;9418;52.694;13.294;2023-12-14T07:22:58;3.30;35.70
18577;DHT22;9418;52.694;13.294;2023-12-14T07:25:25;3.30;34.10
18577;DHT22;9418;52.694;13.294;2023-12-14T07:27:51;3.30;33.70
18577;DHT22;9418;52.694;13.294;2023-12-14T07:30:18;3.30;36.60
18577;DHT22;9418;52.694;13.294;2023-12-14T07:32:46;3.30;39.90
18577;DHT22;9418;52.694;13.294;2023-12-14T07:35:12;3.30;38.30
18577;DHT22;9418;52.694;13.294;2023-12-14T07:37:39;3.30;38.60
18577;DHT22;9418;52.694;13.294;2023-12-14T07:40:06;3.40;36.90
18577;DHT22;9418;52.694;13.294;2023-12-14T07:42:33;3.40;36.70
18577;DHT22;9418;52.694;13.294;2023-12-14T07:45:00;3.40;37.50
18577;DHT22;9418;52.694;13.294;2023-12-14T07:47:26;3.40;37.90
18577;DHT22;9418;52.694;13.294;2023-12-14T07:49:54;3.40;38.80
18577;DHT22;9418;52.694;13.294;2023-12-14T07:52:21;3.40;39.50
18577;DHT22;9418;52.694;13.294;2023-12-14T07:54:47;3.40;40.90
18577;DHT22;9418;52.694;13.294;2023-12-14T07:57:14;3.40;41.50
18577;DHT22;9418;52.694;13.294;2023-12-14T07:59:40;3.40;42.40
18577;DHT22;9418;52.694;13.294;2023-12-14T08:02:07;3.40;41.40
18577;DHT22;9418;52.694;13.294;2023-12-14T08:04:33;3.40;43.90
18577;DHT22;9418;52.694;13.294;2023-12-14T08:07:01;3.40;46.00
18577;DHT22;9418;52.694;13.294;2023-12-14T08:09:28;3.40;47.90
18577;DHT22;9418;52.694;13.294;2023-12-14T08:11:54;3.40;46.10
18577;DHT22;9418;52.694;13.294;2023-12-14T08:14:21;3.40;46.80
18577;DHT22;9418;52.694;13.294;2023-12-14T08:16:48;3.40;47.20
18577;DHT22;9418;52.694;13.294;2023-12-14T08:19:14;3.40;46.90
18577;DHT22;9418;52.694;13.294;2023-12-14T08:21:41;3.40;47.30
18577;DHT22;9418;52.694;13.294;2023-12-14T08:24:09;3.40;47.30
18577;DHT22;9418;52.694;13.294;2023-12-14T08:26:35;3.40;45.10
18577;DHT22;9418;52.694;13.294;2023-12-14T08:29:02;3.40;49.80
18577;DHT22;9418;52.694;13.294;2023-12-14T08:31:28;3.40;46.00
18577;DHT22;9418;52.694;13.294;2023-12-14T08:33:55;3.50;44.70
18577;DHT22;9418;52.694;13.294;2023-12-14T08:36:21;3.50;46.60
18577;DHT22;9418;52.694;13.294;2023-12-14T08:38:48;3.40;48.50
18577;DHT22;9418;52.694;13.294;2023-12-14T08:41:16;3.40;49.00
18577;DHT22;9418;52.694;13.294;2023-12-14T08:43:42;3.40;52.00
18577;DHT22;9418;52.694;13.294;2023-12-14T08:46:09;3.40;51.30
18577;DHT22;9418;52.694;13.294;2023-12-14T08:48:36;3.40;52.10
18577;DHT22;9418;52.694;13.294;2023-12-14T08:51:03;3.40;53.20
18577;DHT22;9418;52.694;13.294;2023-12-14T08:53:30;3.40;54.00
18577;DHT22;9418;52.694;13.294;2023-12-14T08:55:57;3.40;53.20
18577;DHT22;9418;52.694;13.294;2023-12-14T08:58:24;3.50;52.60
18577;DHT22;9418;52.694;13.294;2023-12-14T09:00:50;3.50;51.90
18577;DHT22;9418;52.694;13.294;2023-12-14T09:03:18;3.40;55.00
18577;DHT22;9418;52.694;13.294;2023-12-14T09:05:44;3.50;54.70
18577;DHT22;9418;52.694;13.294;2023-12-14T09:08:11;3.50;59.30
18577;DHT22;9418;52.694;13.294;2023-12-14T09:10:38;3.50;57.30
18577;DHT22;9418;52.694;13.294;2023-12-14T09:13:05;3.50;57.30
18577;DHT22;9418;52.694;13.294;2023-12-14T09:15:33;3.60;55.80
18577;DHT22;9418;52.694;13.294;2023-12-14T09:18:00;3.50;62.80
18577;DHT22;9418;52.694;13.294;2023-12-14T09:20:27;3.40;60.90
18577;DHT22;9418;52.694;13.294;2023-12-14T09:22:53;3.50;61.40
18577;DHT22;9418;52.694;13.294;2023-12-14T09:25:20;3.50;61.50
18577;DHT22;9418;52.694;13.294;2023-12-14T09:27:47;3.50;61.40
18577;DHT22;9418;52.694;13.294;2023-12-14T09:30:13;3.50;65.60
18577;DHT22;9418;52.694;13.294;2023-12-14T09:32:44;3.40;65.90
18577;DHT22;9418;52.694;13.294;2023-12-14T09:35:10;3.50;65.50
18577;DHT22;9418;52.694;13.294;2023-12-14T09:37:37;3.50;62.40
18577;DHT22;9418;52.694;13.294;2023-12-14T09:40:04;3.40;72.70
18577;DHT22;9418;52.694;13.294;2023-12-14T09:42:37;3.50;68.50
18577;DHT22;9418;52.694;13.294;2023-12-14T09:45:06;3.50;67.20
18577;DHT22;9418;52.694;13.294;2023-12-14T09:47:33;3.50;69.70
18577;DHT22;9418;52.694;13.294;2023-12-14T09:50:01;3.50;65.40
18577;DHT22;9418;52.694;13.294;2023-12-14T09:52:28;3.60;65.80
18577;DHT22;9418;52.694;13.294;2023-12-14T09:54:55;3.60;65.00
18577;DHT22;9418;52.694;13.294;2023-12-14T09:57:21;3.60;65.20
18577;DHT22;9418;52.694;13.294;2023-12-14T09:59:51;3.60;65.60
18577;DHT22;9418;52.694;13.294;2023-12-14T10:02:18;3.60;68.70
18577;DHT22;9418;52.694;13.294;2023-12-14T10:04:46;3.60;68.70
18577;DHT22;9418;52.694;13.294;2023-12-14T10:07:14;3.70;72.60
18577;DHT22;9418;52.694;13.294;2023-12-14T10:09:42;3.60;73.60
18577;DHT22;9418;52.694;13.294;2023-12-14T10:12:10;3.70;73.90
18577;DHT22;9418;52.694;13.294;2023-12-14T10:14:37;3.70;72.20
18577;DHT22;9418;52.694;13.294;2023-12-14T10:17:16;3.70;74.90
18577;DHT22;9418;52.694;13.294;2023-12-14T10:19:43;3.70;74.80
18577;DHT22;9418;52.694;13.294;2023-12-14T10:22:10;3.70;74.60
18577;DHT22;9418;52.694;13.294;2023-12-14T10:24:38;3.80;74.40
18577;DHT22;9418;52.694;13.294;2023-12-14T10:27:06;3.70;74.30
18577;DHT22;9418;52.694;13.294;2023-12-14T10:29:33;3.70;76.10
18577;DHT22;9418;52.694;13.294;2023-12-14T10:32:03;3.70;76.30
18577;DHT22;9418;52.694;13.294;2023-12-14T10:34:32;3.70;75.50
18577;DHT22;9418;52.694;13.294;2023-12-14T10:36:59;3.70;77.50
18577;DHT22;9418;52.694;13.294;2023-12-14T10:39:26;3.70;78.10
18577;DHT22;9418;52.694;13.294;2023-12-14T10:41:56;3.70;79.90
18577;DHT22;9418;52.694;13.294;2023-12-14T10:44:26;3.70;78.10
18577;DHT22;9418;52.694;13.294;2023-12-14T10:46:55;3.70;81.70
18577;DHT22;9418;52.694;13.294;2023-12-14T10:49:23;3.80;80.80
18577;DHT22;9418;52.694;13.294;2023-12-14T10:51:50;3.70;83.60
18577;DHT22;9418;52.694;13.294;2023-12-14T10:54:18;3.80;75.30
18577;DHT22;9418;52.694;13.294;2023-12-14T10:56:44;3.80;79.90
18577;DHT22;9418;52.694;13.294;2023-12-14T10:59:15;3.90;79.20
18577;DHT22;9418;52.694;13.294;2023-12-14T11:01:41;3.90;84.70
18577;DHT22;9418;52.694;13.294;2023-12-14T11:04:08;3.90;87.80
18577;DHT22;9418;52.694;13.294;2023-12-14T11:06:39;3.90;92.70
18577;DHT22;9418;52.694;13.294;2023-12-14T11:09:08;3.90;95.20
18577;DHT22;9418;52.694;13.294;2023-12-14T11:11:41;4.00;94.00
18577;DHT22;9418;52.694;13.294;2023-12-14T11:14:10;3.80;99.90
18577;DHT22;9418;52.694;13.294;2023-12-14T11:16:39;3.90;99.90
18577;DHT22;9418;52.694;13.294;2023-12-14T11:19:27;4.00;99.90
18577;DHT22;9418;52.694;13.294;2023-12-14T11:22:11;4.00;99.90
18577;DHT22;9418;52.694;13.294;2023-12-14T11:24:42;4.00;99.90
18577;DHT22;9418;52.694;13.294;2023-12-14T11:27:09;4.00;99.90
18577;DHT22;9418;52.694;13.294;2023-12-14T11:29:36;4.00;99.90
18577;DHT22;9418;52.694;13.294;2023-12-14T11:32:05;4.10;99.90
18577;DHT22;9418;52.694;13.294;2023-12-14T11:34:32;4.10;97.10
18577;DHT22;9418;52.694;13.294;2023-12-14T11:36:59;4.20;96.60
18577;DHT22;9418;52.694;13.294;2023-12-14T11:39:30;4.10;98.40
18577;DHT22;9418;52.694;13.294;2023-12-14T11:42:00;4.20;98.20
18577;DHT22;9418;52.694;13.294;2023-12-14T11:44:26;4.10;99.90
18577;DHT22;9418;52.694;13.294;2023-12-14T11:46:53;4.10;99.90
18577;DHT22;9418;52.694;13.294;2023-12-14T11:49:24;4.10;99.90
18577;DHT22;9418;52.694;13.294;2023-12-14T11:51:55;4.00;99.90
18577;DHT22;9418;52.694;13.294;2023-12-14T11:54:22;4.00;99.90
18577;DHT22;9418;52.694;13.294;2023-12-14T11:56:49;4.10;97.80
18577;DHT22;9418;52.694;13.294;2023-12-14T11:59:17;4.10;94.50
18577;DHT22;9418;52.694;13.294;2023-12-14T12:01:54;4.10;96.80
18577;DHT22;9418;52.694;13.294;2023-12-14T12:04:23;4.20;96.20
18577;DHT22;9418;52.694;13.294;2023-12-14T12:06:50;4.10;99.90
18577;DHT22;9418;52.694;13.294;2023-12-14T12:09:35;4.10;99.90
18577;DHT22;9418;52.694;13.294;2023-12-14T12:12:05;4.10;99.90
18577;DHT22;9418;52.694;13.294;2023-12-14T12:14:32;4.10;99.90
18577;DHT22;9418;52.694;13.294;2023-12-14T12:16:58;4.10;99.90
18577;DHT22;9418;52.694;13.294;2023-12-14T12:19:26;4.10;97.10
18577;DHT22;9418;52.694;13.294;2023-12-14T12:21:53;4.10;98.50
18577;DHT22;9418;52.694;13.294;2023-12-14T12:24:20;4.10;99.00
18577;DHT22;9418;52.694;13.294;2023-12-14T12:26:47;4.10;99.00
18577;DHT22;9418;52.694;13.294;2023-12-14T12:29:13;4.00;99.90
18577;DHT22;9418;52.694;13.294;2023-12-14T12:31:40;4.00;99.90
18577;DHT22;9418;52.694;13.294;2023-12-14T12:34:07;4.00;99.90
18577;DHT22;9418;52.694;13.294;2023-12-14T12:36:35;4.00;99.90
18577;DHT22;9418;52.694;13.294;2023-12-14T12:39:02;4.00;95.90
18577;DHT22;9418;52.694;13.294;2023-12-14T12:41:31;4.00;97.70
18577;DHT22;9418;52.694;13.294;2023-12-14T12:43:57;4.00;96.30
18577;DHT22;9418;52.694;13.294;2023-12-14T12:46:24;4.00;95.70
18577;DHT22;9418;52.694;13.294;2023-12-14T12:48:51;4.00;92.00
18577;DHT22;9418;52.694;13.294;2023-12-14T12:51:17;4.00;93.80
18577;DHT22;9418;52.694;13.294;2023-12-14T12:53:45;4.00;95.30
18577;DHT22;9418;52.694;13.294;2023-12-14T12:56:12;4.00;93.20
18577;DHT22;9418;52.694;13.294;2023-12-14T12:58:39;4.00;88.80
18577;DHT22;9418;52.694;13.294;2023-12-14T13:01:06;4.00;89.50
18577;DHT22;9418;52.694;13.294;2023-12-14T13:03:32;4.00;93.50
18577;DHT22;9418;52.694;13.294;2023-12-14T13:05:59;3.90;93.00
18577;DHT22;9418;52.694;13.294;2023-12-14T13:08:25;4.00;91.60
18577;DHT22;9418;52.694;13.294;2023-12-14T13:10:53;4.00;90.40
18577;DHT22;9418;52.694;13.294;2023-12-14T13:13:20;4.00;90.60
18577;DHT22;9418;52.694;13.294;2023-12-14T13:15:46;4.00;92.10
18577;DHT22;9418;52.694;13.294;2023-12-14T13:18:13;4.00;89.80
18577;DHT22;9418;52.694;13.294;2023-12-14T13:20:41;4.00;89.70
18577;DHT22;9418;52.694;13.294;2023-12-14T13:23:08;4.00;85.30
18577;DHT22;9418;52.694;13.294;2023-12-14T13:25:34;4.00;85.10
18577;DHT22;9418;52.694;13.294;2023-12-14T13:28:03;3.90;84.90
18577;DHT22;9418;52.694;13.294;2023-12-14T13:30:30;3.90;84.70
18577;DHT22;9418;52.694;13.294;2023-12-14T13:32:56;3.90;85.10
18577;DHT22;9418;52.694;13.294;2023-12-14T13:35:23;3.90;83.90
18577;DHT22;9418;52.694;13.294;2023-12-14T13:37:50;3.80;83.50
18577;DHT22;9418;52.694;13.294;2023-12-14T13:40:16;3.90;81.90
18577;DHT22;9418;52.694;13.294;2023-12-14T13:42:44;3.80;80.50
18577;DHT22;9418;52.694;13.294;2023-12-14T13:45:11;3.80;80.10
18577;DHT22;9418;52.694;13.294;2023-12-14T13:47:38;3.80;77.40
18577;DHT22;9418;52.694;13.294;2023-12-14T13:50:06;3.80;78.00
18577;DHT22;9418;52.694;13.294;2023-12-14T13:52:34;3.80;75.70
18577;DHT22;9418;52.694;13.294;2023-12-14T13:55:00;3.90;73.70
18577;DHT22;9418;52.694;13.294;2023-12-14T13:57:27;3.80;76.90
18577;DHT22;9418;52.694;13.294;2023-12-14T13:59:54;3.80;77.90
18577;DHT22;9418;52.694;13.294;2023-12-14T14:02:22;3.80;81.10
18577;DHT22;9418;52.694;13.294;2023-12-14T14:04:50;3.80;83.00
18577;DHT22;9418;52.694;13.294;2023-12-14T14:07:17;3.80;82.00
18577;DHT22;9418;52.694;13.294;2023-12-14T14:09:44;3.80;82.90
18577;DHT22;9418;52.694;13.294;2023-12-14T14:12:10;3.80;82.40
18577;DHT22;9418;52.694;13.294;2023-12-14T14:14:37;3.80;81.50
18577;DHT22;9418;52.694;13.294;2023-12-14T14:17:04;3.80;81.80
18577;DHT22;9418;52.694;13.294;2023-12-14T14:19:34;3.80;83.40
18577;DHT22;9418;52.694;13.294;2023-12-14T14:22:00;3.80;86.50
18577;DHT22;9418;52.694;13.294;2023-12-14T14:24:27;3.80;86.80
18577;DHT22;9418;52.694;13.294;2023-12-14T14:26:53;3.80;85.10
18577;DHT22;9418;52.694;13.294;2023-12-14T14:29:20;3.80;83.30
18577;DHT22;9418;52.694;13.294;2023-12-14T14:31:46;3.80;82.70
18577;DHT22;9418;52.694;13.294;2023-12-14T14:34:13;3.80;81.60
18577;DHT22;9418;52.694;13.294;2023-12-14T14:36:41;3.70;79.10
18577;DHT22;9418;52.694;13.294;2023-12-14T14:39:10;3.70;77.80
18577;DHT22;9418;52.694;13.294;2023-12-14T14:41:36;3.70;77.20
18577;DHT22;9418;52.694;13.294;2023-12-14T14:44:03;3.70;77.80
18577;DHT22;9418;52.694;13.294;2023-12-14T14:46:30;3.70;78.10
18577;DHT22;9418;52.694;13.294;2023-12-14T14:48:56;3.70;78.00
18577;DHT22;9418;52.694;13.294;2023-12-14T14:51:25;3.60;78.70
18577;DHT22;9418;52.694;13.294;2023-12-14T14:53:53;3.60;75.20
18577;DHT22;9418;52.694;13.294;2023-12-14T14:56:20;3.60;76.70
18577;DHT22;9418;52.694;13.294;2023-12-14T14:58:46;3.60;76.10
18577;DHT22;9418;52.694;13.294;2023-12-14T15:01:13;3.60;75.40
18577;DHT22;9418;52.694;13.294;2023-12-14T15:03:39;3.60;75.10
18577;DHT22;9418;52.694;13.294;2023-12-14T15:06:07;3.60;72.40
18577;DHT22;9418;52.694;13.294;2023-12-14T15:08:33;3.60;73.20
18577;DHT22;9418;52.694;13.294;2023-12-14T15:11:01;3.60;73.30
18577;DHT22;9418;52.694;13.294;2023-12-14T15:13:28;3.60;72.80
18577;DHT22;9418;52.694;13.294;2023-12-14T15:15:55;3.60;71.70
18577;DHT22;9418;52.694;13.294;2023-12-14T15:18:22;3.60;71.10
18577;DHT22;9418;52.694;13.294;2023-12-14T15:20:48;3.60;70.20
18577;DHT22;9418;52.694;13.294;2023-12-14T15:23:16;3.60;67.60
18577;DHT22;9418;52.694;13.294;2023-12-14T15:25:43;3.60;65.20
18577;DHT22;9418;52.694;13.294;2023-12-14T15:28:11;3.60;64.70
18577;DHT22;9418;52.694;13.294;2023-12-14T15:30:37;3.50;63.10
18577;DHT22;9418;52.694;13.294;2023-12-14T15:33:04;3.50;62.00
18577;DHT22;9418;52.694;13.294;2023-12-14T15:35:31;3.50;60.70
18577;DHT22;9418;52.694;13.294;2023-12-14T15:37:57;3.50;59.80
18577;DHT22;9418;52.694;13.294;2023-12-14T15:40:24;3.50;58.90
18577;DHT22;9418;52.694;13.294;2023-12-14T15:42:51;3.50;58.90
18577;DHT22;9418;52.694;13.294;2023-12-14T15:45:21;3.50;57.90